Online Now
Guests 2
Members   0

24/7 FSX Server
IP: 71.135.74.145
@ PHOG until 2/10/23



Information and tools for flight simulation use only - NOT for real avaition

File Flight Plans Here

PHOG 061154Z AUTO 12008KT 10SM CLR 21/17 A3014 RMK AO2 SLP212 T02060167 10228 20206 58002 TSNO PHOG 061130Z 0612/0712 06011KT P6SM SCT025 SCT050 FM062000 07019G28KT P6SM SCT025 SCT060 FM070600 06011G15KT P6SM SCT025 SCT060
Aviation Digital Data Service (ADDS)



Other FSX servers